createdAt,value
2019-02-10T00:00:36.189Z,84.15
2019-02-10T00:01:48.292Z,84.04
2019-02-10T00:02:51.133Z,84.33
2019-02-10T00:03:53.806Z,84.28
2019-02-10T00:04:56.463Z,84.15
2019-02-10T00:05:59.205Z,84.09
2019-02-10T00:07:02.218Z,84.29
2019-02-10T00:08:04.907Z,84.44
2019-02-10T00:09:13.613Z,84.45
2019-02-10T00:10:23.267Z,84.30
2019-02-10T00:11:28.889Z,84.18
2019-02-10T00:12:33.869Z,84.18
2019-02-10T00:13:36.945Z,84.31
2019-02-10T00:14:40.601Z,84.31
2019-02-10T00:15:47.501Z,84.07
2019-02-10T00:16:49.327Z,84.22
2019-02-10T00:17:52.253Z,84.43
2019-02-10T00:18:56.543Z,84.39
2019-02-10T00:19:59.676Z,84.28
2019-02-10T00:21:02.996Z,84.36
2019-02-10T00:22:08.047Z,83.79
2019-02-10T00:23:10.827Z,84.13
2019-02-10T00:24:14.599Z,84.14
2019-02-10T00:25:17.337Z,84.28
2019-02-10T00:26:20.492Z,84.28
2019-02-10T00:27:27.300Z,84.44
2019-02-10T00:28:34.435Z,84.53
2019-02-10T00:29:37.183Z,84.53
2019-02-10T00:30:41.423Z,84.22
2019-02-10T00:31:44.115Z,84.37
2019-02-10T00:32:51.484Z,84.21
2019-02-10T00:33:54.241Z,84.32
2019-02-10T00:34:57.466Z,84.32
2019-02-10T00:36:00.163Z,84.14
2019-02-10T00:37:02.869Z,84.03
2019-02-10T00:38:05.645Z,84.22
2019-02-10T00:39:11.774Z,84.23
2019-02-10T00:40:14.583Z,84.34
2019-02-10T00:41:17.339Z,83.89
2019-02-10T00:42:20.545Z,83.55
2019-02-10T00:43:23.246Z,83.36
2019-02-10T00:44:25.923Z,83.36
2019-02-10T00:45:31.714Z,84.01
2019-02-10T00:46:36.143Z,83.82
2019-02-10T00:47:38.913Z,83.69
2019-02-10T00:48:41.624Z,83.42
2019-02-10T00:49:44.305Z,83.67
2019-02-10T00:50:47.007Z,84.28
2019-02-10T00:51:55.283Z,83.54
2019-02-10T00:52:58.054Z,83.54
2019-02-10T00:54:00.768Z,83.95
2019-02-10T00:55:03.437Z,83.95
2019-02-10T00:56:06.239Z,84.21
2019-02-10T00:57:13.046Z,84.03
2019-02-10T00:58:13.656Z,84.11
2019-02-10T00:59:16.381Z,83.78
2019-02-10T01:00:19.247Z,83.78
2019-02-10T01:01:22.068Z,84.30
2019-02-10T01:02:24.831Z,84.46
2019-02-10T01:03:27.581Z,84.42
2019-02-10T01:04:32.298Z,84.19
2019-02-10T01:05:40.924Z,84.19
2019-02-10T01:06:43.726Z,83.83
2019-02-10T01:07:48.352Z,83.95
2019-02-10T01:08:53.826Z,83.64
2019-02-10T01:09:56.550Z,84.30
2019-02-10T01:10:59.994Z,84.08
2019-02-10T01:12:02.815Z,84.38
2019-02-10T01:13:05.542Z,83.81
2019-02-10T01:14:08.297Z,84.36
2019-02-10T01:15:14.151Z,84.29
2019-02-10T01:16:19.965Z,84.21
2019-02-10T01:17:22.763Z,84.21
2019-02-10T01:18:25.432Z,84.31
2019-02-10T01:19:28.095Z,84.12
2019-02-10T01:20:30.764Z,84.12
2019-02-10T01:21:33.514Z,84.17
2019-02-10T01:22:37.373Z,84.08
2019-02-10T01:23:40.333Z,84.08
2019-02-10T01:24:43.115Z,83.93
2019-02-10T01:25:45.891Z,83.93
2019-02-10T01:26:49.030Z,83.99
2019-02-10T01:27:52.580Z,83.99
2019-02-10T01:28:55.396Z,83.91
2019-02-10T01:29:58.839Z,83.99
2019-02-10T01:31:01.555Z,83.92
2019-02-10T01:32:04.648Z,83.49
2019-02-10T01:33:07.422Z,84.04
2019-02-10T01:34:10.227Z,83.76
2019-02-10T01:35:15.555Z,83.63
2019-02-10T01:36:18.504Z,84.03
2019-02-10T01:37:24.406Z,84.03
2019-02-10T01:38:28.721Z,83.88
2019-02-10T01:39:31.419Z,84.07
2019-02-10T01:40:34.182Z,83.75
2019-02-10T01:41:36.866Z,83.46
2019-02-10T01:42:39.852Z,83.56
2019-02-10T01:43:42.689Z,83.81
2019-02-10T01:44:45.510Z,83.81
2019-02-10T01:45:48.238Z,83.63
2019-02-10T01:46:50.974Z,83.63
2019-02-10T01:47:53.746Z,83.50
2019-02-10T01:48:56.730Z,83.50
2019-02-10T01:50:00.089Z,83.17
2019-02-10T01:51:02.958Z,83.07
2019-02-10T01:52:05.718Z,83.19
2019-02-10T01:53:08.550Z,83.13
2019-02-10T01:54:11.286Z,83.13
2019-02-10T01:55:14.448Z,83.39
2019-02-10T01:56:17.147Z,82.85
2019-02-10T01:57:19.902Z,82.88
2019-02-10T01:58:22.686Z,82.88
2019-02-10T01:59:25.371Z,83.02
2019-02-10T02:00:28.153Z,83.27
2019-02-10T02:01:31.229Z,83.62
2019-02-10T02:02:33.987Z,83.23
2019-02-10T02:03:36.729Z,83.11
2019-02-10T02:04:39.560Z,83.13
2019-02-10T02:05:45.361Z,82.77
2019-02-10T02:06:48.608Z,82.84
2019-02-10T02:07:51.679Z,82.84
2019-02-10T02:08:56.649Z,83.03
2019-02-10T02:09:59.354Z,83.16
2019-02-10T02:11:02.085Z,82.59
2019-02-10T02:12:06.788Z,82.89
2019-02-10T02:13:09.592Z,82.95
2019-02-10T02:14:12.656Z,82.25
2019-02-10T02:15:15.333Z,82.66
2019-02-10T02:16:18.279Z,82.66
2019-02-10T02:17:20.972Z,82.66
2019-02-10T02:18:23.774Z,83.12
2019-02-10T02:19:26.521Z,82.83
2019-02-10T02:20:31.732Z,83.24
2019-02-10T02:21:34.115Z,83.24
2019-02-10T02:22:36.898Z,82.85
2019-02-10T02:23:39.667Z,82.96
2019-02-10T02:24:42.425Z,83.18
2019-02-10T02:25:45.092Z,82.17
2019-02-10T02:26:48.079Z,82.68
2019-02-10T02:27:50.883Z,82.73
2019-02-10T02:28:56.104Z,82.74
2019-02-10T02:29:58.908Z,82.36
2019-02-10T02:31:01.626Z,82.36
2019-02-10T02:32:04.304Z,82.63
2019-02-10T02:33:07.489Z,82.63
2019-02-10T02:34:10.317Z,82.21
2019-02-10T02:35:12.979Z,81.89
2019-02-10T02:36:15.794Z,81.76
2019-02-10T02:37:18.562Z,82.50
2019-02-10T02:38:21.842Z,82.03
2019-02-10T02:39:24.971Z,82.14
2019-02-10T02:40:27.758Z,82.07
2019-02-10T02:41:30.581Z,82.07
2019-02-10T02:42:33.254Z,82.49
2019-02-10T02:43:36.027Z,82.60
2019-02-10T02:44:39.472Z,82.28
2019-02-10T02:45:42.249Z,82.28
2019-02-10T02:46:44.991Z,82.17
2019-02-10T02:47:47.763Z,82.23
2019-02-10T02:48:50.444Z,81.72
2019-02-10T02:49:56.233Z,82.46
2019-02-10T02:51:01.015Z,81.98
2019-02-10T02:52:04.312Z,82.19
2019-02-10T02:53:07.573Z,81.95
2019-02-10T02:54:10.398Z,81.79
2019-02-10T02:55:13.165Z,81.96
2019-02-10T02:56:18.435Z,82.12
2019-02-10T02:57:21.493Z,82.04
2019-02-10T02:58:24.286Z,81.96
2019-02-10T02:59:26.989Z,81.65
2019-02-10T03:00:29.656Z,81.65
2019-02-10T03:01:32.390Z,81.61
2019-02-10T03:02:35.185Z,81.46
2019-02-10T03:03:38.245Z,81.46
2019-02-10T03:04:42.011Z,81.26
2019-02-10T03:05:44.698Z,81.48
2019-02-10T03:06:47.914Z,81.20
2019-02-10T03:07:50.598Z,81.33
2019-02-10T03:08:53.259Z,81.33
2019-02-10T03:09:56.748Z,81.23
2019-02-10T03:10:59.555Z,81.49
2019-02-10T03:12:04.886Z,81.59
2019-02-10T03:13:07.566Z,81.59
2019-02-10T03:14:10.473Z,81.57
2019-02-10T03:15:13.243Z,81.26
2019-02-10T03:16:16.287Z,81.96
2019-02-10T03:17:18.953Z,81.96
2019-02-10T03:18:21.647Z,82.57
2019-02-10T03:19:24.814Z,83.20
2019-02-10T03:20:27.584Z,83.58
2019-02-10T03:21:30.861Z,83.90
2019-02-10T03:22:34.394Z,84.12
2019-02-10T03:23:37.157Z,84.12
2019-02-10T03:24:42.417Z,85.54
2019-02-10T03:25:45.144Z,85.54
2019-02-10T03:26:47.921Z,85.04
2019-02-10T03:27:51.082Z,86.22
2019-02-10T03:28:54.208Z,86.02
2019-02-10T03:29:56.978Z,86.62
2019-02-10T03:30:59.761Z,87.44
2019-02-10T03:32:02.573Z,87.55
2019-02-10T03:33:05.342Z,87.63
2019-02-10T03:34:09.869Z,88.04
2019-02-10T03:35:13.292Z,88.27
2019-02-10T03:36:16.147Z,88.30
2019-02-10T03:37:26.791Z,88.22
2019-02-10T03:38:23.352Z,89.07
2019-02-10T03:39:26.049Z,89.56
2019-02-10T03:40:30.028Z,89.12
2019-02-10T03:41:32.844Z,89.40
2019-02-10T03:42:35.802Z,89.23
2019-02-10T03:43:38.547Z,89.83
2019-02-10T03:44:41.457Z,89.46
2019-02-10T03:45:44.233Z,89.78
2019-02-10T03:46:47.047Z,90.41
2019-02-10T03:47:49.758Z,90.36
2019-02-10T03:48:52.821Z,90.36
2019-02-10T03:49:55.982Z,90.66
2019-02-10T03:50:59.057Z,91.11
2019-02-10T03:52:01.715Z,90.96
2019-02-10T03:53:04.409Z,90.96
2019-02-10T03:54:07.178Z,90.90
2019-02-10T03:55:10.341Z,91.16
2019-02-10T03:56:13.019Z,91.73
2019-02-10T03:57:15.733Z,91.58
2019-02-10T03:58:18.504Z,91.70
2019-02-10T03:59:21.259Z,91.74
2019-02-10T04:00:23.970Z,91.74
2019-02-10T04:01:26.962Z,91.90
2019-02-10T04:02:29.721Z,91.65
2019-02-10T04:03:32.505Z,92.20
2019-02-10T04:04:35.287Z,92.10
2019-02-10T04:05:39.961Z,92.26
2019-02-10T04:06:42.649Z,92.26
2019-02-10T04:07:45.677Z,92.36
2019-02-10T04:08:48.476Z,92.17
2019-02-10T04:09:51.177Z,92.17
2019-02-10T04:10:56.359Z,92.27
2019-02-10T04:11:59.783Z,92.77
2019-02-10T04:13:02.532Z,92.63
2019-02-10T04:14:05.703Z,92.67
2019-02-10T04:15:08.438Z,92.67
2019-02-10T04:16:11.196Z,93.71
2019-02-10T04:17:13.850Z,93.50
2019-02-10T04:18:16.535Z,93.50
2019-02-10T04:19:22.558Z,93.50
2019-02-10T04:20:25.270Z,93.75
2019-02-10T04:21:28.080Z,93.67
2019-02-10T04:22:30.787Z,93.47
2019-02-10T04:23:33.521Z,93.42
2019-02-10T04:24:36.331Z,93.05
2019-02-10T04:25:42.262Z,93.22
2019-02-10T04:26:45.133Z,93.46
2019-02-10T04:27:48.251Z,93.34
2019-02-10T04:28:50.935Z,93.34
2019-02-10T04:29:53.783Z,93.60
2019-02-10T04:30:56.574Z,93.82
2019-02-10T04:32:02.111Z,94.24
2019-02-10T04:33:04.863Z,94.23
2019-02-10T04:34:07.551Z,94.23
2019-02-10T04:35:10.718Z,94.03
2019-02-10T04:36:13.422Z,94.03
2019-02-10T04:37:16.202Z,93.81
2019-02-10T04:38:19.231Z,94.41
2019-02-10T04:39:21.947Z,94.41
2019-02-10T04:40:24.709Z,94.06
2019-02-10T04:41:27.403Z,93.74
2019-02-10T04:42:30.249Z,94.22
2019-02-10T04:43:32.935Z,94.14
2019-02-10T04:44:35.931Z,94.15
2019-02-10T04:45:38.687Z,94.34
2019-02-10T04:46:46.148Z,94.34
2019-02-10T04:47:48.920Z,94.16
2019-02-10T04:48:51.627Z,94.31
2019-02-10T04:49:54.369Z,94.18
2019-02-10T04:50:57.329Z,94.23
2019-02-10T04:51:59.993Z,94.29
2019-02-10T04:53:02.756Z,93.85
2019-02-10T04:54:05.454Z,93.89
2019-02-10T04:55:08.205Z,93.89
2019-02-10T04:56:10.983Z,94.16
2019-02-10T04:57:13.998Z,93.87
2019-02-10T04:58:16.709Z,93.75
2019-02-10T04:59:19.396Z,93.70
2019-02-10T05:00:22.598Z,93.83
2019-02-10T05:01:25.252Z,93.43
2019-02-10T05:02:27.945Z,93.63
2019-02-10T05:03:31.085Z,93.83
2019-02-10T05:04:33.854Z,93.37
2019-02-10T05:05:36.584Z,92.99
2019-02-10T05:06:39.257Z,92.83
2019-02-10T05:07:41.939Z,93.64
2019-02-10T05:08:44.597Z,93.49
2019-02-10T05:09:47.660Z,93.69
2019-02-10T05:10:51.914Z,94.06
2019-02-10T05:11:55.304Z,93.73
2019-02-10T05:12:57.997Z,93.70
2019-02-10T05:14:00.683Z,92.99
2019-02-10T05:15:07.972Z,93.02
2019-02-10T05:16:11.281Z,92.76
2019-02-10T05:17:13.934Z,92.84
2019-02-10T05:18:16.644Z,92.84
2019-02-10T05:19:19.346Z,94.18
2019-02-10T05:20:22.188Z,93.85
2019-02-10T05:21:24.942Z,93.98
2019-02-10T05:22:27.913Z,94.55
2019-02-10T05:23:30.708Z,94.14
2019-02-10T05:24:33.445Z,94.14
2019-02-10T05:25:36.127Z,94.22
2019-02-10T05:26:38.865Z,94.26
2019-02-10T05:27:41.604Z,94.65
2019-02-10T05:28:44.775Z,94.23
2019-02-10T05:29:47.569Z,93.93
2019-02-10T05:30:53.287Z,93.93
2019-02-10T05:31:56.038Z,94.02
2019-02-10T05:32:58.820Z,93.90
2019-02-10T05:34:01.629Z,94.07
2019-02-10T05:35:04.702Z,94.02
2019-02-10T05:36:07.492Z,94.02
2019-02-10T05:37:10.606Z,93.93
2019-02-10T05:38:13.390Z,93.96
2019-02-10T05:39:16.205Z,93.96
2019-02-10T05:40:18.953Z,93.71
2019-02-10T05:41:22.728Z,93.75
2019-02-10T05:42:25.497Z,94.03
2019-02-10T05:43:28.260Z,94.11
2019-02-10T05:44:30.950Z,93.61
2019-02-10T05:45:33.636Z,92.74
2019-02-10T05:46:36.403Z,92.74
2019-02-10T05:47:39.222Z,93.01
2019-02-10T05:48:41.963Z,93.09
2019-02-10T05:49:44.744Z,92.61
2019-02-10T05:50:47.503Z,93.18
2019-02-10T05:51:50.343Z,92.74
2019-02-10T05:52:55.185Z,92.75
2019-02-10T05:53:57.756Z,92.53
2019-02-10T05:55:00.512Z,92.25
2019-02-10T05:56:03.239Z,92.59
2019-02-10T05:57:06.745Z,92.86
2019-02-10T05:58:09.427Z,93.06
2019-02-10T05:59:12.093Z,92.69
2019-02-10T06:00:15.267Z,91.79
2019-02-10T06:01:18.052Z,91.74
2019-02-10T06:02:29.908Z,91.28
2019-02-10T06:03:32.594Z,91.34
2019-02-10T06:04:38.216Z,91.34
2019-02-10T06:05:41.180Z,92.14
2019-02-10T06:06:44.186Z,91.50
2019-02-10T06:07:47.011Z,91.50
2019-02-10T06:08:50.214Z,91.62
2019-02-10T06:09:55.516Z,91.74
2019-02-10T06:10:58.304Z,91.56
2019-02-10T06:12:01.491Z,91.86
2019-02-10T06:13:04.722Z,90.75
2019-02-10T06:14:07.448Z,91.47
2019-02-10T06:15:22.253Z,91.46
2019-02-10T06:16:24.924Z,91.34
2019-02-10T06:17:27.648Z,90.92
2019-02-10T06:18:30.389Z,91.18
2019-02-10T06:19:33.412Z,91.33
2019-02-10T06:20:36.653Z,91.33
2019-02-10T06:21:40.162Z,90.25
2019-02-10T06:22:42.927Z,90.50
2019-02-10T06:23:45.710Z,90.71
2019-02-10T06:24:48.427Z,90.64
2019-02-10T06:25:51.620Z,90.64
2019-02-10T06:26:54.368Z,90.16
2019-02-10T06:27:57.509Z,90.09
2019-02-10T06:29:00.213Z,89.53
2019-02-10T06:43:53.279Z,89.79
2019-02-10T06:44:56.220Z,89.70
2019-02-10T06:45:59.312Z,89.75
2019-02-10T06:47:03.106Z,89.75
2019-02-10T06:48:05.800Z,90.07
2019-02-10T06:49:09.355Z,89.57
2019-02-10T06:50:12.089Z,89.57
2019-02-10T06:51:14.786Z,89.38
2019-02-10T06:52:17.548Z,88.20
2019-02-10T06:53:20.749Z,87.84
2019-02-10T06:54:25.773Z,88.22
2019-02-10T06:55:28.553Z,88.22
2019-02-10T06:56:31.328Z,88.29
2019-02-10T06:57:34.166Z,87.40
2019-02-10T06:58:39.095Z,87.40
2019-02-10T07:00:03.764Z,87.94
2019-02-10T07:01:29.236Z,87.85
2019-02-10T07:02:37.907Z,88.20
2019-02-10T07:03:47.025Z,88.20
2019-02-10T07:04:49.736Z,88.57
2019-02-10T07:05:52.704Z,88.73
2019-02-10T07:06:56.287Z,88.99
2019-02-10T07:08:02.693Z,88.87
2019-02-10T07:09:06.101Z,88.85
2019-02-10T07:10:08.802Z,88.96
2019-02-10T07:11:11.489Z,88.96
2019-02-10T07:12:14.201Z,88.63
2019-02-10T07:13:17.268Z,88.30
2019-02-10T07:14:19.985Z,88.99
2019-02-10T07:15:22.693Z,88.97
2019-02-10T07:16:25.477Z,90.09
2019-02-10T07:17:31.005Z,90.09
2019-02-10T07:18:33.773Z,90.33
2019-02-10T07:19:36.822Z,90.81
2019-02-10T07:20:39.594Z,90.60
2019-02-10T07:21:42.267Z,90.40
2019-02-10T07:22:44.925Z,90.76
2019-02-10T07:23:47.686Z,90.78
2019-02-10T07:24:53.256Z,91.61
2019-02-10T07:25:59.031Z,91.61
2019-02-10T07:27:01.745Z,91.07
2019-02-10T07:28:04.794Z,90.40
2019-02-10T07:29:07.512Z,90.44
2019-02-10T07:30:10.211Z,90.96
2019-02-10T07:31:13.413Z,91.37
2019-02-10T07:32:16.451Z,91.40
2019-02-10T07:33:19.182Z,91.52
2019-02-10T07:34:21.872Z,91.29
2019-02-10T07:35:25.342Z,90.82
2019-02-10T07:36:30.702Z,91.30
2019-02-10T07:37:33.367Z,91.11
2019-02-10T07:38:38.928Z,91.15
2019-02-10T07:39:41.664Z,90.71
2019-02-10T07:40:44.387Z,90.71
2019-02-10T07:41:47.126Z,91.22
2019-02-10T07:42:49.818Z,91.32
2019-02-10T07:43:52.806Z,91.32
2019-02-10T07:44:55.711Z,90.67
2019-02-10T07:45:58.460Z,90.51
2019-02-10T07:47:01.233Z,90.84
2019-02-10T07:48:03.940Z,90.96
2019-02-10T07:49:06.702Z,91.35
2019-02-10T07:50:09.762Z,92.00
2019-02-10T07:51:12.480Z,92.00
2019-02-10T07:52:15.180Z,92.12
2019-02-10T07:53:17.913Z,91.44
2019-02-10T07:54:20.712Z,91.94
2019-02-10T07:55:24.869Z,91.13
2019-02-10T07:56:28.845Z,90.58
2019-02-10T07:57:33.726Z,90.75
2019-02-10T07:58:36.553Z,90.78
2019-02-10T07:59:39.291Z,90.95
2019-02-10T08:00:42.013Z,90.98
2019-02-10T08:01:45.621Z,90.98
2019-02-10T08:02:48.611Z,90.98
2019-02-10T08:03:51.365Z,91.06
2019-02-10T08:04:54.203Z,91.29
2019-02-10T08:05:57.433Z,90.78
2019-02-10T08:07:00.164Z,90.70
2019-02-10T08:08:02.936Z,90.70
2019-02-10T08:09:06.537Z,89.20
2019-02-10T08:10:09.311Z,88.81
2019-02-10T08:11:13.082Z,89.44
2019-02-10T08:12:15.778Z,89.44
2019-02-10T08:13:18.465Z,88.16
2019-02-10T08:14:21.145Z,88.16
2019-02-10T08:15:24.138Z,88.75
2019-02-10T08:16:27.211Z,88.75
2019-02-10T08:17:29.890Z,88.22
2019-02-10T08:18:32.564Z,87.39
2019-02-10T08:19:38.390Z,87.39
2019-02-10T08:20:43.256Z,88.10
2019-02-10T08:21:48.961Z,87.69
2019-02-10T08:22:52.244Z,88.27
2019-02-10T08:23:59.221Z,88.27
2019-02-10T08:24:59.375Z,87.64
2019-02-10T08:26:02.181Z,87.75
2019-02-10T08:27:08.041Z,88.59
2019-02-10T08:28:11.040Z,88.02
2019-02-10T08:29:13.702Z,87.74
2019-02-10T08:30:16.870Z,86.82
2019-02-10T08:31:19.670Z,86.82
2019-02-10T08:32:22.426Z,87.11
2019-02-10T08:33:25.258Z,86.83
2019-02-10T08:34:28.304Z,86.95
2019-02-10T08:35:30.984Z,86.95
2019-02-10T08:36:33.672Z,86.95
2019-02-10T08:37:36.445Z,87.13
2019-02-10T08:38:39.177Z,86.82
2019-02-10T08:39:44.228Z,86.80
2019-02-10T08:40:47.190Z,86.91
2019-02-10T08:41:49.860Z,86.91
2019-02-10T08:42:53.138Z,86.86
2019-02-10T08:43:55.858Z,86.67
2019-02-10T08:44:58.581Z,86.76
2019-02-10T08:46:01.978Z,86.53
2019-02-10T08:47:04.965Z,86.30
2019-02-10T08:48:07.742Z,86.36
2019-02-10T08:49:10.427Z,86.44
2019-02-10T08:50:13.185Z,85.61
2019-02-10T08:51:17.296Z,85.61
2019-02-10T08:52:20.344Z,85.58
2019-02-10T08:53:26.001Z,86.07
2019-02-10T08:54:33.367Z,86.07
2019-02-10T08:55:45.021Z,85.76
2019-02-10T08:56:48.046Z,85.22
2019-02-10T08:57:50.737Z,85.22
2019-02-10T08:58:59.469Z,85.46
2019-02-10T09:00:06.388Z,85.38
2019-02-10T09:01:09.346Z,85.38
2019-02-10T09:02:12.111Z,85.25
2019-02-10T09:03:19.678Z,85.28
2019-02-10T09:04:19.219Z,85.49
2019-02-10T09:05:24.389Z,85.49
2019-02-10T09:06:27.117Z,85.77
2019-02-10T09:07:30.164Z,85.34
2019-02-10T09:08:33.366Z,85.63
2019-02-10T09:09:36.135Z,84.85
2019-02-10T09:10:39.162Z,85.63
2019-02-10T09:11:42.576Z,85.57
2019-02-10T09:12:52.509Z,85.46
2019-02-10T09:13:59.590Z,85.46
2019-02-10T09:15:07.121Z,84.46
2019-02-10T09:16:09.888Z,84.17
2019-02-10T09:17:12.650Z,84.84
2019-02-10T09:18:15.746Z,84.84
2019-02-10T09:19:21.046Z,84.53
2019-02-10T09:20:23.717Z,84.53
2019-02-10T09:21:26.469Z,84.25
2019-02-10T09:22:29.184Z,84.29
2019-02-10T09:23:34.201Z,84.96
2019-02-10T09:24:37.234Z,84.05
2019-02-10T09:25:44.017Z,84.66
2019-02-10T09:26:49.174Z,83.60
2019-02-10T09:27:51.840Z,84.45
2019-02-10T09:28:57.287Z,84.24
2019-02-10T09:30:00.021Z,83.22
2019-02-10T09:31:03.008Z,83.49
2019-02-10T09:32:06.135Z,84.08
2019-02-10T09:33:08.821Z,83.93
2019-02-10T09:34:11.723Z,83.93
2019-02-10T09:35:18.999Z,84.40
2019-02-10T09:36:22.846Z,84.68
2019-02-10T09:37:25.808Z,86.30
2019-02-10T09:38:30.950Z,87.79
2019-02-10T09:39:33.787Z,88.00
2019-02-10T09:40:36.605Z,88.28
2019-02-10T09:41:40.428Z,88.28
2019-02-10T09:42:43.150Z,88.74
2019-02-10T09:43:46.186Z,88.77
2019-02-10T09:44:48.937Z,88.77
2019-02-10T09:45:51.577Z,89.20
2019-02-10T09:46:54.681Z,89.20
2019-02-10T09:47:57.375Z,90.29
2019-02-10T09:49:00.155Z,90.35
2019-02-10T09:50:03.248Z,90.35
2019-02-10T09:51:07.499Z,90.08
2019-02-10T09:52:10.380Z,90.08
2019-02-10T09:53:13.733Z,90.50
2019-02-10T09:54:19.929Z,90.09
2019-02-10T09:55:22.488Z,90.09
2019-02-10T09:56:25.612Z,91.08
2019-02-10T09:57:30.495Z,90.92
2019-02-10T09:58:39.906Z,91.19
2019-02-10T09:59:42.700Z,92.04
2019-02-10T10:00:45.559Z,92.04
2019-02-10T10:01:48.536Z,92.18
2019-02-10T10:02:54.197Z,91.18
2019-02-10T10:03:57.413Z,91.80
2019-02-10T10:05:01.280Z,91.21
2019-02-10T10:06:04.011Z,91.78
2019-02-10T10:07:06.720Z,92.06
2019-02-10T10:08:09.697Z,90.87
2019-02-10T10:09:19.061Z,92.82
2019-02-10T10:10:17.452Z,92.97
2019-02-10T10:11:20.181Z,92.38
2019-02-10T10:12:27.065Z,92.44
2019-02-10T10:13:27.530Z,92.33
2019-02-10T10:14:31.057Z,92.24
2019-02-10T10:15:35.073Z,92.55
2019-02-10T10:16:37.785Z,92.55
2019-02-10T10:17:44.316Z,92.36
2019-02-10T10:18:47.820Z,93.13
2019-02-10T10:19:50.916Z,93.13
2019-02-10T10:20:57.997Z,93.96
2019-02-10T10:22:00.705Z,93.96
2019-02-10T10:23:03.448Z,94.26
2019-02-10T10:24:06.213Z,93.81
2019-02-10T10:25:08.996Z,93.41
2019-02-10T10:26:12.007Z,93.41
2019-02-10T10:27:14.683Z,92.81
2019-02-10T10:28:17.361Z,94.57
2019-02-10T10:29:20.269Z,94.65
2019-02-10T10:30:23.035Z,93.74
2019-02-10T10:31:25.802Z,93.74
2019-02-10T10:32:30.864Z,93.68
2019-02-10T10:33:37.374Z,92.79
2019-02-10T10:34:40.170Z,92.79
2019-02-10T10:35:42.942Z,92.81
2019-02-10T10:36:45.600Z,93.16
2019-02-10T10:37:48.579Z,94.11
2019-02-10T10:38:54.407Z,93.37
2019-02-10T10:39:57.175Z,93.48
2019-02-10T10:40:59.897Z,93.48
2019-02-10T10:42:02.599Z,92.20
2019-02-10T10:43:05.382Z,92.20
2019-02-10T10:44:08.158Z,92.28
2019-02-10T10:45:11.136Z,91.05
2019-02-10T10:46:15.377Z,91.16
2019-02-10T10:47:21.110Z,91.16
2019-02-10T10:48:23.929Z,92.10
2019-02-10T10:49:27.185Z,90.63
2019-02-10T10:50:37.179Z,91.17
2019-02-10T10:51:39.862Z,91.91
2019-02-10T10:52:42.528Z,91.41
2019-02-10T10:53:46.977Z,91.41
2019-02-10T10:54:52.799Z,90.26
2019-02-10T10:55:55.664Z,89.84
2019-02-10T10:57:00.048Z,90.67
2019-02-10T10:58:02.749Z,90.31
2019-02-10T10:59:05.456Z,90.29
2019-02-10T11:00:08.251Z,90.67
2019-02-10T11:01:11.302Z,90.67
2019-02-10T11:02:13.950Z,90.55
2019-02-10T11:03:17.343Z,91.57
2019-02-10T11:04:20.308Z,92.23
2019-02-10T11:05:25.907Z,92.23
2019-02-10T11:06:28.607Z,91.56
2019-02-10T11:07:31.627Z,91.56
2019-02-10T11:08:37.405Z,91.42
2019-02-10T11:09:43.191Z,92.15
2019-02-10T11:10:48.226Z,92.29
2019-02-10T11:11:53.398Z,91.74
2019-02-10T11:12:56.141Z,91.29
2019-02-10T11:13:59.274Z,91.63
2019-02-10T11:15:02.394Z,91.59
2019-02-10T11:16:05.154Z,91.79
2019-02-10T11:17:10.882Z,91.79
2019-02-10T11:18:16.940Z,92.24
2019-02-10T11:19:19.679Z,92.95
2019-02-10T11:20:22.910Z,92.84
2019-02-10T11:21:25.779Z,92.89
2019-02-10T11:22:28.471Z,92.54
2019-02-10T11:23:31.302Z,92.92
2019-02-10T11:24:34.093Z,92.59
2019-02-10T11:25:37.518Z,91.65
2019-02-10T11:26:43.293Z,92.61
2019-02-10T11:27:49.230Z,92.84
2019-02-10T11:28:52.843Z,91.95
2019-02-10T11:29:57.275Z,93.52
2019-02-10T11:42:41.174Z,94.53
2019-02-10T11:43:46.196Z,95.16
2019-02-10T11:44:52.881Z,94.64
2019-02-10T11:45:57.188Z,94.46
2019-02-10T11:47:02.852Z,94.05
2019-02-10T11:48:10.007Z,93.46
2019-02-10T11:49:17.282Z,92.80
2019-02-10T11:50:22.284Z,93.06
2019-02-10T11:51:28.163Z,93.06
2019-02-10T11:52:32.491Z,93.38
2019-02-10T11:53:35.562Z,93.28
2019-02-10T11:54:41.966Z,93.79
2019-02-10T11:55:44.874Z,92.72
2019-02-10T11:56:47.912Z,93.27
2019-02-10T11:57:50.798Z,94.04
2019-02-10T11:58:53.543Z,93.73
2019-02-10T11:59:56.600Z,94.85
2019-02-10T12:01:03.329Z,94.60
2019-02-10T12:02:06.015Z,94.39
2019-02-10T12:03:09.042Z,94.39
2019-02-10T12:04:12.122Z,94.65
2019-02-10T12:05:15.011Z,94.48
2019-02-10T12:06:20.964Z,95.38
2019-02-10T12:07:24.748Z,94.26
2019-02-10T12:08:35.629Z,94.39
2019-02-10T12:09:39.753Z,94.49
2019-02-10T12:10:43.784Z,94.88
2019-02-10T12:11:46.640Z,94.88
2019-02-10T12:12:54.014Z,93.36
2019-02-10T12:13:57.007Z,92.15
2019-02-10T12:15:00.144Z,92.52
2019-02-10T12:16:05.730Z,93.76
2019-02-10T12:17:09.864Z,93.76
2019-02-10T12:18:12.564Z,93.11
2019-02-10T12:19:17.137Z,93.11
2019-02-10T12:20:26.873Z,94.41
2019-02-10T12:21:31.248Z,93.44
2019-02-10T12:22:35.160Z,93.01
2019-02-10T12:23:37.914Z,93.25
2019-02-10T12:24:40.711Z,92.74
2019-02-10T12:25:43.738Z,93.33
2019-02-10T12:26:49.609Z,94.44
2019-02-10T12:27:52.332Z,94.38
2019-02-10T12:28:55.308Z,93.96
2019-02-10T12:29:58.057Z,94.51
2019-02-10T12:31:00.795Z,95.72
2019-02-10T12:32:08.673Z,95.49
2019-02-10T12:33:14.350Z,94.93
2019-02-10T12:34:17.103Z,93.86
2019-02-10T12:35:21.626Z,93.86
2019-02-10T12:36:25.819Z,92.61
2019-02-10T12:37:32.580Z,92.61
2019-02-10T12:38:40.701Z,93.86
2019-02-10T12:39:43.567Z,93.70
2019-02-10T12:40:46.418Z,93.74
2019-02-10T12:41:49.254Z,94.16
2019-02-10T12:42:54.213Z,94.60
2019-02-10T12:43:57.295Z,94.97
2019-02-10T12:45:02.702Z,94.97
2019-02-10T12:46:07.050Z,93.04
2019-02-10T12:47:10.716Z,92.47
2019-02-10T12:48:18.805Z,92.46
2019-02-10T12:49:23.132Z,93.36
2019-02-10T12:50:25.854Z,93.36
2019-02-10T12:51:31.114Z,92.51
2019-02-10T12:52:36.266Z,92.87
2019-02-10T12:53:41.265Z,93.16
2019-02-10T12:54:44.348Z,92.81
2019-02-10T12:55:48.538Z,93.33
2019-02-10T12:56:51.307Z,93.50
2019-02-10T12:57:54.147Z,93.80
2019-02-10T12:58:56.929Z,94.25
2019-02-10T13:00:00.252Z,93.53
2019-02-10T13:01:03.355Z,93.71
2019-02-10T13:02:06.381Z,94.31
2019-02-10T13:03:09.321Z,94.92
2019-02-10T13:04:13.134Z,94.92
2019-02-10T13:05:15.904Z,95.30
2019-02-10T13:06:18.677Z,95.30
2019-02-10T13:07:34.430Z,95.10
2019-02-10T13:08:40.234Z,94.26
2019-02-10T13:09:45.189Z,94.47
2019-02-10T13:10:47.931Z,94.92
2019-02-10T13:11:58.116Z,94.92
2019-02-10T13:12:56.465Z,96.35
2019-02-10T13:14:01.848Z,96.74
2019-02-10T13:15:04.611Z,97.65
2019-02-10T13:16:11.435Z,97.65
2019-02-10T13:17:14.159Z,96.74
2019-02-10T13:18:17.272Z,96.68
2019-02-10T13:19:22.266Z,96.68
2019-02-10T13:20:25.365Z,96.55
2019-02-10T13:21:28.101Z,96.55
2019-02-10T13:22:30.853Z,97.02
2019-02-10T13:23:36.145Z,96.54
2019-02-10T13:24:41.120Z,96.54
2019-02-10T13:25:46.767Z,95.51
2019-02-10T13:26:49.833Z,95.46
2019-02-10T13:28:01.769Z,96.12
2019-02-10T13:29:12.807Z,96.35
2019-02-10T13:30:18.329Z,96.66
2019-02-10T13:31:25.186Z,96.33
2019-02-10T13:32:32.931Z,96.97
2019-02-10T13:33:36.400Z,96.64
2019-02-10T13:34:39.121Z,96.64
2019-02-10T13:35:42.372Z,97.27
2019-02-10T13:36:53.113Z,97.13
2019-02-10T13:37:59.186Z,96.50
2019-02-10T13:39:06.042Z,96.50
2019-02-10T13:40:17.213Z,96.05
2019-02-10T13:41:22.131Z,95.39
2019-02-10T13:42:27.309Z,96.44
2019-02-10T13:43:33.765Z,96.11
2019-02-10T13:44:36.661Z,96.11
2019-02-10T13:45:39.752Z,96.17
2019-02-10T13:46:42.464Z,95.39
2019-02-10T13:47:48.247Z,94.77
2019-02-10T13:48:55.637Z,94.68
2019-02-10T13:49:58.364Z,94.68
2019-02-10T13:51:05.910Z,93.87
2019-02-10T13:52:12.303Z,92.72
2019-02-10T13:53:15.161Z,93.31
2019-02-10T13:54:19.524Z,94.43
2019-02-10T13:55:25.237Z,93.97
2019-02-10T13:56:32.947Z,93.97
2019-02-10T13:57:36.578Z,94.40
2019-02-10T13:58:45.765Z,94.09
2019-02-10T13:59:48.517Z,94.09
2019-02-10T14:00:54.594Z,93.71
2019-02-10T14:01:59.318Z,93.82
2019-02-10T14:03:05.047Z,94.11
2019-02-10T14:04:09.493Z,94.28
2019-02-10T14:05:12.192Z,93.70
2019-02-10T14:06:15.131Z,93.96